Time;durP1;ratioP1;P1;durP2;ratioP2;P2;SDS_P1;SDS_P2;PMS_P1;PMS_P2;Temp;Humidity;BMP_temperature;BMP_pressure;BME280_temperature;BME280_humidity;BME280_pressure;Samples;Min_cycle;Max_cycle;Signal;HPM_P1;HPM_P2
2022/10/27 17:15:51;;;;;;;;;3.50;3.00;;;;;;;;5076476;27;6255524;-70
2022/10/27 17:18:46;;;;;;;;;8.00;6.80;;;;;;;;5289791;28;8807;-70
2022/10/27 17:21:17;;;;;;;;;7.00;7.00;;;;;;;;5234165;28;8853;-70
2022/10/27 17:23:48;;;;;;;;;6.20;6.20;;;;;;;;5231934;28;8817;-71
2022/10/27 17:26:19;;;;;;;;;5.00;5.00;;;;;;;;5233213;28;8801;-71
2022/10/27 17:28:51;;;;;;;;;9.00;9.00;;;;;;;;5262311;28;8856;-70
2022/10/27 17:31:22;;;;;;;;;6.00;6.00;;;;;;;;5232794;28;8785;-70
2022/10/27 17:33:58;;;;;;;;;10.00;9.60;;;;;;;;5236282;28;8796;-72
2022/10/27 17:36:29;;;;;;;;;6.40;6.00;;;;;;;;5270321;28;8793;-71
2022/10/27 17:39:18;;;;;;;;;10.80;10.20;;;;;;;;5256590;28;8806;-71
2022/10/27 17:41:55;;;;;;;;;9.00;8.80;;;;;;;;5234812;28;8792;-70
2022/10/27 17:44:26;;;;;;;;;7.40;7.40;;;;;;;;5241642;28;8805;-70
2022/10/27 17:47:16;;;;;;;;;8.40;8.40;;;;;;;;5235665;28;8821;-70
2022/10/27 17:49:47;;;;;;;;;13.00;13.00;;;;;;;;5232786;28;8855;-70
2022/10/27 17:52:18;;;;;;;;;9.20;9.20;;;;;;;;5239815;28;8822;-70
2022/10/27 17:54:49;;;;;;;;;10.60;10.60;;;;;;;;5232561;28;9562;-70
2022/10/27 17:57:20;;;;;;;;;8.40;8.20;;;;;;;;5232037;28;8794;-69
2022/10/27 17:59:51;;;;;;;;;12.00;11.75;;;;;;;;5232439;28;8777;-70
2022/10/27 18:02:44;;;;;;;;;11.75;11.25;;;;;;;;5265735;28;11432;-72
2022/10/27 18:05:18;;;;;;;;;9.40;9.40;;;;;;;;5248758;28;11412;-71
2022/10/27 18:07:48;;;;;;;;;46.60;38.40;;;;;;;;5245039;28;8823;-71
2022/10/27 18:10:38;;;;;;;;;5.00;5.00;;;;;;;;5255592;28;8818;-70
2022/10/27 18:13:09;;;;;;;;;4.20;4.20;;;;;;;;5252949;28;9673;-70
2022/10/27 18:15:40;;;;;;;;;7.80;7.80;;;;;;;;5232411;28;8808;-71
2022/10/27 18:18:11;;;;;;;;;7.50;7.50;;;;;;;;5248633;28;8808;-70
2022/10/27 18:20:42;;;;;;;;;5.00;5.00;;;;;;;;5265817;28;10655;-70
2022/10/27 18:23:13;;;;;;;;;6.40;6.20;;;;;;;;5227561;28;9599;-71
2022/10/27 18:25:44;;;;;;;;;6.00;6.00;;;;;;;;5228039;28;9533;-70
2022/10/27 18:28:15;;;;;;;;;6.80;6.80;;;;;;;;5228137;28;8823;-70
2022/10/27 18:31:06;;;;;;;;;6.00;6.00;;;;;;;;5245128;28;8803;-70
2022/10/27 18:33:38;;;;;;;;;7.00;7.00;;;;;;;;5227977;28;8783;-70
2022/10/27 18:36:27;;;;;;;;;7.00;7.00;;;;;;;;5230447;28;8788;-72
2022/10/27 18:38:59;;;;;;;;;6.50;6.50;;;;;;;;5221658;28;8839;-70
2022/10/27 18:41:33;;;;;;;;;6.20;6.20;;;;;;;;5265009;28;11456;-71
2022/10/27 18:44:04;;;;;;;;;5.60;5.60;;;;;;;;5238386;28;8806;-71
2022/10/27 18:46:35;;;;;;;;;3.40;3.40;;;;;;;;5212341;28;8815;-71
2022/10/27 18:49:06;;;;;;;;;5.60;5.60;;;;;;;;5227794;28;9551;-72
2022/10/27 18:51:37;;;;;;;;;5.40;5.00;;;;;;;;5210936;28;8779;-72
2022/10/27 18:54:09;;;;;;;;;8.60;8.60;;;;;;;;5244451;28;8855;-70
2022/10/27 18:56:40;;;;;;;;;6.00;6.00;;;;;;;;5226923;28;8811;-72
2022/10/27 18:59:12;;;;;;;;;8.60;8.60;;;;;;;;5226207;28;8880;-72
2022/10/27 19:01:45;;;;;;;;;7.20;7.20;;;;;;;;5252004;28;8961;-71
2022/10/27 19:04:16;;;;;;;;;6.80;6.40;;;;;;;;5225389;28;8761;-72
2022/10/27 19:06:53;;;;;;;;;10.00;9.80;;;;;;;;5249106;28;8796;-73
2022/10/27 19:09:24;;;;;;;;;6.80;6.60;;;;;;;;5234723;28;8955;-72
2022/10/27 19:11:54;;;;;;;;;9.50;9.50;;;;;;;;5234859;28;8961;-71
2022/10/27 19:14:44;;;;;;;;;7.60;7.60;;;;;;;;5238099;28;11802;-72
2022/10/27 19:17:15;;;;;;;;;6.40;6.40;;;;;;;;5250052;28;9033;-72
2022/10/27 19:19:46;;;;;;;;;4.60;4.60;;;;;;;;5259831;28;8915;-73
2022/10/27 19:22:19;;;;;;;;;6.25;6.25;;;;;;;;5256908;28;8845;-72
2022/10/27 19:24:50;;;;;;;;;6.00;6.00;;;;;;;;5259000;28;9811;-72
2022/10/27 19:27:21;;;;;;;;;6.00;6.00;;;;;;;;5242001;28;8970;-71
2022/10/27 19:29:52;;;;;;;;;7.80;7.80;;;;;;;;5242355;28;8817;-72
2022/10/27 19:32:23;;;;;;;;;3.50;3.50;;;;;;;;5233683;28;8790;-71
2022/10/27 19:34:54;;;;;;;;;7.40;7.40;;;;;;;;5241924;28;9631;-72
2022/10/27 19:37:25;;;;;;;;;7.25;7.25;;;;;;;;5233070;28;8834;-72
2022/10/27 19:40:14;;;;;;;;;5.00;4.60;;;;;;;;5252539;28;8917;-72
2022/10/27 19:42:45;;;;;;;;;6.00;6.00;;;;;;;;5236236;28;9591;-72
2022/10/27 19:45:16;;;;;;;;;5.40;5.40;;;;;;;;5255237;28;8783;-71
2022/10/27 19:47:47;;;;;;;;;11.00;11.00;;;;;;;;5272125;28;8853;-70
2022/10/27 19:50:36;;;;;;;;;8.60;8.60;;;;;;;;5259382;28;8911;-71
2022/10/27 19:53:07;;;;;;;;;10.60;10.00;;;;;;;;5236926;28;8933;-71
2022/10/27 19:55:38;;;;;;;;;8.40;8.40;;;;;;;;5233226;28;8794;-72
2022/10/27 19:58:28;;;;;;;;;6.60;6.60;;;;;;;;5284040;28;9671;-71
2022/10/27 20:00:59;;;;;;;;;9.20;9.20;;;;;;;;5261108;28;8898;-71
2022/10/27 20:03:48;;;;;;;;;8.20;6.80;;;;;;;;5259858;28;8802;-70
2022/10/27 20:06:20;;;;;;;;;7.40;6.20;;;;;;;;5259315;28;8779;-72
2022/10/27 20:08:51;;;;;;;;;6.00;5.40;;;;;;;;5278374;28;8786;-73
2022/10/27 20:11:23;;;;;;;;;8.80;8.80;;;;;;;;5242859;28;8789;-72
2022/10/27 20:13:55;;;;;;;;;11.40;11.00;;;;;;;;5234975;28;9498;-72
2022/10/27 20:16:34;;;;;;;;;8.60;8.60;;;;;;;;5244037;28;8814;-72
2022/10/27 20:19:15;;;;;;;;;6.40;6.40;;;;;;;;5260687;28;8811;-71
2022/10/27 20:21:47;;;;;;;;;5.60;5.60;;;;;;;;5261525;28;8821;-72
2022/10/27 20:24:36;;;;;;;;;6.40;6.40;;;;;;;;5246301;28;8806;-72
2022/10/27 20:27:28;;;;;;;;;3.80;3.00;;;;;;;;5244460;28;8813;-71
2022/10/27 20:29:59;;;;;;;;;5.40;5.40;;;;;;;;5233496;28;8800;-71
2022/10/27 20:32:30;;;;;;;;;4.50;4.50;;;;;;;;5234566;28;9584;-71
2022/10/27 20:35:02;;;;;;;;;7.00;7.00;;;;;;;;5261968;28;9421;-73
2022/10/27 20:37:51;;;;;;;;;7.00;7.00;;;;;;;;5237039;28;9715;-72
2022/10/27 20:40:40;;;;;;;;;9.00;9.00;;;;;;;;5269075;28;9597;-71
2022/10/27 20:43:11;;;;;;;;;6.20;6.20;;;;;;;;5234293;28;8786;-72
2022/10/27 20:45:42;;;;;;;;;8.50;8.50;;;;;;;;5253863;28;8787;-70
2022/10/27 20:48:13;;;;;;;;;6.60;6.40;;;;;;;;5237986;28;11419;-70
2022/10/27 20:50:53;;;;;;;;;9.75;9.00;;;;;;;;5255225;28;8767;-71
2022/10/27 20:53:24;;;;;;;;;6.00;6.00;;;;;;;;5271843;28;10681;-72
2022/10/27 20:55:55;;;;;;;;;12.20;12.00;;;;;;;;5230995;28;8825;-70
2022/10/27 20:58:26;;;;;;;;;7.20;7.20;;;;;;;;5283683;28;8790;-74
2022/10/27 21:01:30;;;;;;;;;9.40;7.80;;;;;;;;5244401;28;8825;-74
2022/10/27 21:04:03;;;;;;;;;10.20;10.20;;;;;;;;5259636;28;8798;-74
2022/10/27 21:06:36;;;;;;;;;5.60;5.60;;;;;;;;5242163;28;8789;-74
2022/10/27 21:09:09;;;;;;;;;6.80;6.80;;;;;;;;5233724;28;8801;-73
2022/10/27 21:11:41;;;;;;;;;7.00;7.00;;;;;;;;5233859;28;8795;-74
2022/10/27 21:14:13;;;;;;;;;11.60;11.00;;;;;;;;5226453;28;9730;-74
2022/10/27 21:16:46;;;;;;;;;8.40;8.40;;;;;;;;5259584;28;8815;-72
2022/10/27 21:19:18;;;;;;;;;5.00;5.00;;;;;;;;5257991;28;8874;-73
2022/10/27 21:21:49;;;;;;;;;6.20;6.20;;;;;;;;5242800;28;8811;-72
2022/10/27 21:24:21;;;;;;;;;5.00;5.00;;;;;;;;5259129;28;8801;-73
2022/10/27 21:26:52;;;;;;;;;13.20;12.80;;;;;;;;5275963;28;8810;-73
2022/10/27 21:29:23;;;;;;;;;10.20;10.00;;;;;;;;5232890;28;8846;-73
2022/10/27 21:31:54;;;;;;;;;10.00;10.00;;;;;;;;5275929;28;8862;-74
2022/10/27 21:34:26;;;;;;;;;7.00;6.20;;;;;;;;5241384;28;8834;-74
2022/10/27 21:36:58;;;;;;;;;6.00;6.00;;;;;;;;5233747;28;9544;-73
2022/10/27 21:39:29;;;;;;;;;3.80;3.80;;;;;;;;5249607;28;8910;-73
2022/10/27 21:42:00;;;;;;;;;5.60;5.60;;;;;;;;5267171;28;8916;-73
2022/10/27 21:44:32;;;;;;;;;33.60;32.40;;;;;;;;5253768;28;8775;-73
2022/10/27 21:47:03;;;;;;;;;11.80;9.40;;;;;;;;5237519;28;8771;-73
2022/10/27 21:49:35;;;;;;;;;6.20;6.20;;;;;;;;5236604;28;8788;-73
2022/10/27 21:52:06;;;;;;;;;5.60;5.60;;;;;;;;5237280;28;8798;-73
2022/10/27 21:54:37;;;;;;;;;7.80;7.20;;;;;;;;5253620;28;8771;-73
2022/10/27 21:57:08;;;;;;;;;7.80;7.80;;;;;;;;5253598;28;8909;-74
2022/10/27 21:59:39;;;;;;;;;1.20;1.20;;;;;;;;5270662;28;8809;-74
2022/10/27 22:02:10;;;;;;;;;8.40;8.40;;;;;;;;5269968;28;8779;-75
2022/10/27 22:05:00;;;;;;;;;10.80;10.80;;;;;;;;5272871;28;8833;-74
2022/10/27 22:07:32;;;;;;;;;15.80;15.80;;;;;;;;5253373;28;8818;-74
2022/10/27 22:10:22;;;;;;;;;11.20;10.80;;;;;;;;5249211;28;8798;-74
2022/10/27 22:12:53;;;;;;;;;12.80;11.80;;;;;;;;5232883;28;8866;-74
2022/10/27 22:15:25;;;;;;;;;7.00;7.00;;;;;;;;5248975;28;8895;-74
2022/10/27 22:17:56;;;;;;;;;9.40;9.40;;;;;;;;5232901;28;8935;-71
2022/10/27 22:20:27;;;;;;;;;6.20;6.00;;;;;;;;5232564;28;8810;-72
2022/10/27 22:23:17;;;;;;;;;10.80;10.80;;;;;;;;5262522;28;8811;-72
2022/10/27 22:25:48;;;;;;;;;6.20;6.20;;;;;;;;5261135;28;8786;-76
2022/10/27 22:28:19;;;;;;;;;6.20;6.20;;;;;;;;5248931;28;8821;-74
2022/10/27 22:30:50;;;;;;;;;6.60;6.20;;;;;;;;5233014;28;9561;-75
2022/10/27 22:33:22;;;;;;;;;7.40;7.40;;;;;;;;5249354;28;8770;-75
2022/10/27 22:35:53;;;;;;;;;6.80;6.80;;;;;;;;5232451;28;8790;-75
2022/10/27 22:38:24;;;;;;;;;7.80;7.80;;;;;;;;5267042;28;8808;-74
2022/10/27 22:41:03;;;;;;;;;5.40;5.40;;;;;;;;5242030;28;8775;-74
2022/10/27 22:43:52;;;;;;;;;5.40;5.40;;;;;;;;5255822;28;8794;-74
2022/10/27 22:46:25;;;;;;;;;6.60;6.60;;;;;;;;5241415;28;8862;-74
2022/10/27 22:49:15;;;;;;;;;4.20;4.20;;;;;;;;5263958;28;8936;-76
2022/10/27 22:51:47;;;;;;;;;5.00;5.00;;;;;;;;5287209;28;9508;-78
2022/10/27 22:54:18;;;;;;;;;1.00;1.00;;;;;;;;5236250;28;8781;-76
2022/10/27 22:57:08;;;;;;;;;1.20;1.20;;;;;;;;5238865;28;8778;-76
2022/10/27 22:59:39;;;;;;;;;5.00;5.00;;;;;;;;5236707;28;8867;-77
2022/10/27 23:02:10;;;;;;;;;7.20;7.20;;;;;;;;5257328;28;8790;-79
2022/10/27 23:04:41;;;;;;;;;7.80;7.00;;;;;;;;5257171;28;8772;-78
2022/10/27 23:07:13;;;;;;;;;5.40;5.40;;;;;;;;5240222;28;9502;-77
2022/10/27 23:09:44;;;;;;;;;5.40;5.40;;;;;;;;5256808;28;9517;-77
2022/10/27 23:12:15;;;;;;;;;9.40;9.40;;;;;;;;5256974;28;8839;-79
2022/10/27 23:14:46;;;;;;;;;7.40;7.20;;;;;;;;5256417;28;8821;-78
2022/10/27 23:17:18;;;;;;;;;8.20;8.20;;;;;;;;5273580;28;8783;-79
2022/10/27 23:19:49;;;;;;;;;6.00;6.00;;;;;;;;5253288;28;9459;-78
2022/10/27 23:22:20;;;;;;;;;5.80;5.80;;;;;;;;5269182;28;9749;-77
2022/10/27 23:24:51;;;;;;;;;5.00;3.80;;;;;;;;5237871;28;8833;-78
2022/10/27 23:27:22;;;;;;;;;11.20;11.20;;;;;;;;5291455;28;8795;-78
2022/10/27 23:30:12;;;;;;;;;7.60;7.60;;;;;;;;5259142;28;8790;-78
2022/10/27 23:32:43;;;;;;;;;7.00;7.00;;;;;;;;5256553;28;8779;-76
2022/10/27 23:35:14;;;;;;;;;5.40;5.40;;;;;;;;5256691;28;8875;-77
2022/10/27 23:37:46;;;;;;;;;6.20;6.20;;;;;;;;5256385;28;8803;-76
2022/10/27 23:40:36;;;;;;;;;3.40;3.40;;;;;;;;5247463;28;8809;-76
2022/10/27 23:43:07;;;;;;;;;1.00;1.00;;;;;;;;5235405;28;8810;-76
2022/10/27 23:45:38;;;;;;;;;6.60;6.60;;;;;;;;5246715;28;8791;-76
2022/10/27 23:48:28;;;;;;;;;6.00;6.00;;;;;;;;5258639;28;8795;-76
2022/10/27 23:51:00;;;;;;;;;5.80;5.80;;;;;;;;5256150;28;8803;-73
2022/10/27 23:53:31;;;;;;;;;1.00;1.00;;;;;;;;5273018;28;8782;-73
2022/10/27 23:56:03;;;;;;;;;6.00;6.00;;;;;;;;5272979;28;9524;-73
2022/10/27 23:58:36;;;;;;;;;6.40;6.40;;;;;;;;5239349;28;8814;-73
